Wednesday, February 10, 2016, 12:45 PM EST

KFYJ, West Point, Middle Peninsula Regional Airport

Location: Shacklefords, VA, United States Lat: 37.521
Local Time: 12:45 PM EST (17:45 GMT) Lon: -76.764
Time Zone: US/Eastern Elev: 22 ft

Show me the last for .
Show Decoded

2016-02-10 12:35 METAR KFYJ 101735Z AUTO 24009KT 10SM CLR 04/M07 A2983 RMK AO2 T00431072 =
2016-02-10 12:15 METAR KFYJ 101715Z AUTO 26007KT 10SM CLR 04/M07 A2984 RMK AO2 T00371072 =
2016-02-10 11:55 METAR KFYJ 101655Z AUTO 29006KT 10SM CLR 03/M08 A2985 RMK AO2 T00311079 =
2016-02-10 11:35 METAR KFYJ 101635Z AUTO 28007KT 10SM CLR 03/M07 A2985 RMK AO2 T00291073 =
2016-02-10 11:15 METAR KFYJ 101615Z AUTO 28009KT 10SM CLR 02/M07 A2986 RMK AO2 T00221071 =
2016-02-10 10:55 METAR KFYJ 101555Z AUTO 28007KT 10SM CLR 02/M06 A2986 RMK AO2 T00211061 =
2016-02-10 10:35 METAR KFYJ 101535Z AUTO 27008KT 10SM CLR 02/M06 A2986 RMK AO2 T00151062 =
2016-02-10 10:15 METAR KFYJ 101515Z AUTO 27008KT 10SM CLR 01/M06 A2987 RMK AO2 T00121060 =
2016-02-10 09:55 METAR KFYJ 101455Z AUTO 27009KT 10SM CLR 01/M06 A2987 RMK AO2 T00081063 =
2016-02-10 09:35 METAR KFYJ 101435Z AUTO 27009KT 10SM CLR 00/M06 A2987 RMK AO2 T00011062 =
2016-02-10 09:15 METAR KFYJ 101415Z AUTO 26008KT 10SM CLR 00/M06 A2987 RMK AO2 T10021060 =
2016-02-10 08:55 METAR KFYJ 101355Z AUTO 25011KT 10SM SCT070 M01/M06 A2986 RMK AO2 T10111060 =
2016-02-10 08:35 METAR KFYJ 101335Z AUTO 24010G14KT 10SM OVC070 00/M05 A2986 RMK AO2 T10051049 =
2016-02-10 08:15 METAR KFYJ 101315Z AUTO 24008KT 10SM BKN070 M01/M04 A2985 RMK AO2 T10111043 =
2016-02-10 07:55 METAR KFYJ 101255Z AUTO 24006KT 10SM SCT060 M02/M04 A2985 RMK AO2 T10161036 =
2016-02-10 07:35 METAR KFYJ 101235Z AUTO 24007KT 10SM BKN060 M02/M04 A2985 RMK AO2 T10171037 =
2016-02-10 07:15 METAR KFYJ 101215Z AUTO 25005KT 10SM OVC050 M02/M03 A2984 RMK AO2 T10181035 =
2016-02-10 06:55 METAR KFYJ 101155Z AUTO 25005KT 10SM SCT014 SCT026 OVC050 M02/M03 A2982 RMK AO2
                 70013 T10171035 10004 21017 =
2016-02-10 06:35 METAR KFYJ 101135Z AUTO 26006KT 10SM BKN014 BKN026 OVC050 M01/M03 A2982 RMK AO2
                 T10151031 =
2016-02-10 06:15 METAR KFYJ 101115Z AUTO 26007KT 10SM SCT008 OVC016 M01/M03 A2981 RMK AO2
                 T10151028 =
2016-02-10 05:55 METAR KFYJ 101055Z AUTO 26008KT 5SM SCT008 OVC016 M01/M03 A2980 RMK AO2
                 T10141027 =
2016-02-10 05:35 METAR KFYJ 101035Z AUTO 26009KT 5SM SCT008 OVC014 M01/M03 A2979 RMK AO2
                 T10131026 =
2016-02-10 05:15 METAR KFYJ 101015Z AUTO 26008KT 5SM SCT008 OVC014 M01/M03 A2978 RMK AO2
                 T10131026 =
2016-02-10 04:55 METAR KFYJ 100955Z AUTO 26008KT 3SM SCT008 OVC016 M01/M03 A2978 RMK AO2
                 T10131026 =
2016-02-10 04:35 METAR KFYJ 100935Z AUTO 25008KT 5SM SCT008 BKN017 OVC022 M01/M03 A2977 RMK AO2
                 T10131027 =
2016-02-10 04:15 METAR KFYJ 100915Z AUTO 27006KT 4SM BKN010 BKN027 OVC035 M01/M03 A2977 RMK AO2
                 T10121029 =
2016-02-10 03:55 METAR KFYJ 100855Z AUTO 26009KT 7SM SCT012 OVC035 M01/M03 A2976 RMK AO2
                 T10121033 =
2016-02-10 03:35 METAR KFYJ 100835Z AUTO 26008KT 7SM OVC031 M01/M03 A2976 RMK AO2 T10111031 =
2016-02-10 03:15 METAR KFYJ 100815Z AUTO 26010KT 7SM SCT010 BKN014 OVC029 M01/M03 A2976 RMK AO2
                 T10111030 =
2016-02-10 02:55 METAR KFYJ 100755Z AUTO 25006KT 2SM BKN008 BKN017 OVC029 M01/M03 A2976 RMK AO2
                 T10121029 =
2016-02-10 02:35 METAR KFYJ 100735Z AUTO 25005KT 2 1/2SM SCT010 SCT017 OVC031 M01/M04 A2976 RMK
                 AO2 T10141037 =
2016-02-10 02:15 METAR KFYJ 100715Z AUTO 25009KT 10SM SCT010 BKN017 OVC045 M01/M04 A2975 RMK AO2
                 T10101042 =
2016-02-10 01:55 METAR KFYJ 100655Z AUTO 25010KT 7SM OVC049 M01/M05 A2975 RMK AO2 T10081047 =
2016-02-10 01:35 METAR KFYJ 100635Z AUTO 26009KT 10SM SCT042 OVC049 00/M06 A2974 RMK AO2
                 T00001060 =
2016-02-10 01:15 METAR KFYJ 100615Z AUTO 27008KT 10SM SCT042 BKN055 OVC075 00/M08 A2973 RMK AO2
                 T00031077 =
2016-02-10 00:55 METAR KFYJ 100555Z AUTO 25008KT 10SM BKN055 OVC075 00/M07 A2974 RMK AO2
                 T00031070 10035 20003 400770003 =
2016-02-10 00:35 METAR KFYJ 100535Z AUTO 25009G14KT 10SM OVC055 01/M07 A2973 RMK AO2 T00051067 =
2016-02-10 00:15 METAR KFYJ 100515Z AUTO 24009KT 10SM OVC055 01/M06 A2974 RMK AO2 T00051063 =
2016-02-09 23:55 METAR KFYJ 100455Z AUTO 25009KT 10SM BKN055 OVC075 01/M06 A2973 RMK AO2
                 T00071065 =
2016-02-09 23:35 METAR KFYJ 100435Z AUTO 25008KT 10SM OVC065 01/M06 A2974 RMK AO2 T00091063 =
2016-02-09 23:15 METAR KFYJ 100415Z AUTO 25008KT 10SM OVC065 01/M06 A2974 RMK AO2 T00111060 =
2016-02-09 22:55 METAR KFYJ 100355Z AUTO 25008KT 10SM OVC065 01/M06 A2974 RMK AO2 T00121061 =
2016-02-09 22:35 METAR KFYJ 100335Z AUTO 25007KT 10SM BKN065 OVC100 01/M06 A2973 RMK AO2
                 T00121057 =
2016-02-09 22:15 METAR KFYJ 100315Z AUTO 25009KT 10SM SCT065 OVC090 01/M05 A2973 RMK AO2
                 T00121052 =
2016-02-09 21:55 METAR KFYJ 100255Z AUTO 25009KT 10SM OVC090 02/M05 A2972 RMK AO2 T00151049 =
2016-02-09 21:35 METAR KFYJ 100235Z AUTO 25008KT 10SM OVC090 02/M04 A2972 RMK AO2 T00171045 =
2016-02-09 21:15 METAR KFYJ 100215Z AUTO 24010KT 10SM OVC090 02/M04 A2971 RMK AO2 T00181043 =
2016-02-09 20:55 METAR KFYJ 100155Z AUTO 23009KT 10SM OVC090 02/M04 A2971 RMK AO2 T00221040 =
2016-02-09 20:35 METAR KFYJ 100135Z AUTO 24008KT 10SM OVC080 02/M03 A2970 RMK AO2 T00211030 =
2016-02-09 20:15 METAR KFYJ 100115Z AUTO 24007KT 10SM OVC080 03/M02 A2969 RMK AO2 T00251016 =
2016-02-09 19:55 METAR KFYJ 100055Z AUTO 25006KT 10SM SCT070 OVC080 03/00 A2968 RMK AO2 T00271005
                 =
2016-02-09 19:35 METAR KFYJ 100035Z AUTO 25003KT 10SM OVC070 04/00 A2968 RMK AO2 T00350001 =
2016-02-09 19:15 METAR KFYJ 100015Z AUTO 30003KT 10SM OVC070 03/01 A2967 RMK AO2 T00320006 =
2016-02-09 18:55 METAR KFYJ 092355Z AUTO 25003KT 10SM SCT045 SCT060 OVC070 03/01 A2967 RMK AO2
                 60013 T00280010 10074 20027 =
2016-02-09 18:35 METAR KFYJ 092335Z AUTO 29003KT 10SM SCT019 SCT026 OVC050 03/01 A2966 RMK AO2
                 T00340007 =
2016-02-09 18:15 METAR KFYJ 092315Z AUTO 00000KT 10SM SCT011 BKN019 OVC040 04/00 A2965 RMK AO2
                 T00350002 =
2016-02-09 17:55 METAR KFYJ 092255Z AUTO 24014KT 5SM SCT013 BKN023 OVC070 03/00 A2965 RMK AO2
                 P0001 T00280000 =
2016-02-09 17:35 METAR KFYJ 092235Z AUTO 00000KT 10SM SCT025 BKN065 OVC080 04/01 A2963 RMK AO2
                 T00390005 =
2016-02-09 17:15 METAR KFYJ 092215Z AUTO 00000KT 10SM SCT044 BKN075 OVC085 04/01 A2962 RMK AO2
                 T00370005 =
2016-02-09 16:55 METAR KFYJ 092155Z AUTO 01004KT 10SM SCT044 SCT050 BKN075 04/01 A2961 RMK AO2
                 T00410005 =
2016-02-09 16:35 METAR KFYJ 092135Z AUTO 32004KT 10SM SCT070 SCT100 05/00 A2961 RMK AO2 T00500000
                 =
2016-02-09 16:15 METAR KFYJ 092115Z AUTO 27007KT 10SM SCT019 SCT044 BKN065 06/00 A2960 RMK AO2
                 T00570001 =
2016-02-09 15:55 METAR KFYJ 092055Z AUTO 29007KT 250V310 7SM SCT013 BKN025 OVC040 04/00 A2960 RMK
                 AO2 P0011 60011 T00370000 =
2016-02-09 15:35 METAR KFYJ 092035Z AUTO 28014G17KT 10SM SCT031 BKN045 OVC060 06/00 A2958 RMK AO2
                 P0011 T00570000 =
2016-02-09 15:15 METAR KFYJ 092015Z AUTO RMK TEMPORAIRILY INOPERATIVE =
2016-02-09 14:55 METAR KFYJ 091955Z AUTO 26003KT 10SM SCT027 BKN055 OVC110 06/00 A2956 RMK AO2
                 T00640001 =
2016-02-09 14:35 METAR KFYJ 091935Z AUTO 28005KT 10SM SCT027 BKN045 OVC090 06/00 A2956 RMK AO2
                 T00630002 =
2016-02-09 14:15 METAR KFYJ 091915Z AUTO 26005KT 10SM BKN070 OVC090 06/01 A2956 RMK AO2 T00620006
                 =
2016-02-09 13:55 METAR KFYJ 091855Z AUTO 29005KT 10SM SCT041 BKN060 OVC090 06/01 A2956 RMK AO2
                 T00600008 =
2016-02-09 13:35 METAR KFYJ 091835Z AUTO 28007KT 250V310 10SM SCT021 BKN044 OVC060 06/00 A2956
                 RMK AO2 T00630001 =
2016-02-09 13:15 METAR KFYJ 091815Z AUTO 27009KT 10SM SCT031 SCT037 OVC050 07/01 A2956 RMK AO2
                 T00660011 =
2016-02-09 12:55 METAR KFYJ 091755Z AUTO 24008KT 10SM SCT031 OVC050 07/01 A2957 RMK AO2 T00700007
                 10077 20027 =

Support USWX by starting your Amazon purchase here.